createdAt,value
2019-01-16T00:01:20.821Z,4.50
2019-01-16T00:03:51.021Z,4.50
2019-01-16T00:06:39.238Z,4.50
2019-01-16T00:09:12.661Z,4.50
2019-01-16T00:11:42.921Z,4.50
2019-01-16T00:14:15.954Z,4.60
2019-01-16T00:16:48.850Z,4.60
2019-01-16T00:19:21.995Z,4.50
2019-01-16T00:21:55.223Z,4.50
2019-01-16T00:24:25.450Z,4.50
2019-01-16T00:27:13.469Z,4.50
2019-01-16T00:29:59.789Z,4.50
2019-01-16T00:32:35.486Z,4.50
2019-01-16T00:35:07.721Z,4.50
2019-01-16T00:37:55.424Z,4.60
2019-01-16T00:40:28.517Z,4.60
2019-01-16T00:42:58.630Z,4.60
2019-01-16T00:45:45.117Z,4.50
2019-01-16T00:48:15.318Z,4.50
2019-01-16T00:51:00.282Z,4.50
2019-01-16T00:53:46.683Z,4.50
2019-01-16T00:56:25.441Z,4.50
2019-01-16T00:59:04.469Z,4.50
2019-01-16T01:01:37.638Z,4.50
2019-01-16T01:04:10.527Z,4.50
2019-01-16T01:06:46.841Z,4.50
2019-01-16T01:09:30.325Z,4.50
2019-01-16T01:12:09.589Z,4.50
2019-01-16T01:14:42.532Z,4.50
2019-01-16T01:17:12.637Z,4.50
2019-01-16T01:19:51.842Z,4.50
2019-01-16T01:22:22.037Z,4.50
2019-01-16T01:24:54.918Z,4.50
2019-01-16T01:27:27.910Z,4.50
2019-01-16T01:30:00.557Z,4.50
2019-01-16T01:32:33.727Z,4.60
2019-01-16T01:35:07.014Z,4.60
2019-01-16T01:37:51.831Z,4.60
2019-01-16T01:40:38.282Z,4.60
2019-01-16T01:43:14.177Z,4.50
2019-01-16T01:45:53.067Z,4.50
2019-01-16T01:48:30.482Z,4.60
2019-01-16T01:51:15.486Z,4.60
2019-01-16T01:53:45.797Z,4.60
2019-01-16T01:56:18.669Z,4.60
2019-01-16T01:59:04.613Z,4.60
2019-01-16T02:01:34.875Z,4.60
2019-01-16T02:04:05.058Z,4.60
2019-01-16T02:06:38.013Z,4.60
2019-01-16T02:09:22.502Z,4.60
2019-01-16T02:11:55.755Z,4.60
2019-01-16T02:14:25.998Z,4.60
2019-01-16T02:17:04.769Z,4.60
2019-01-16T02:19:37.599Z,4.50
2019-01-16T02:22:13.569Z,4.50
2019-01-16T02:24:59.507Z,4.60
2019-01-16T02:27:41.537Z,4.60
2019-01-16T02:30:23.406Z,4.60
2019-01-16T02:33:05.593Z,4.50
2019-01-16T02:35:41.625Z,4.60
2019-01-16T02:38:14.580Z,4.50
2019-01-16T02:40:47.569Z,4.50
2019-01-16T02:43:23.750Z,4.60
2019-01-16T02:46:02.370Z,4.50
2019-01-16T02:48:35.148Z,4.50
2019-01-16T02:51:11.178Z,4.50
2019-01-16T02:53:41.401Z,4.50
2019-01-16T02:56:17.616Z,4.50
2019-01-16T02:58:53.898Z,4.50
2019-01-16T03:01:41.995Z,4.50
2019-01-16T03:04:21.325Z,4.50
2019-01-16T03:06:54.319Z,4.50
2019-01-16T03:09:24.546Z,4.50
2019-01-16T03:12:06.469Z,4.40
2019-01-16T03:14:39.325Z,4.50
2019-01-16T03:17:12.475Z,4.40
2019-01-16T03:19:48.396Z,4.40
2019-01-16T03:22:18.726Z,4.40
2019-01-16T03:24:48.980Z,4.40
2019-01-16T03:27:28.197Z,4.40
2019-01-16T03:30:03.875Z,4.40
2019-01-16T03:32:45.884Z,4.40
2019-01-16T03:35:24.881Z,4.40
2019-01-16T03:37:55.078Z,4.40
2019-01-16T03:40:28.002Z,4.40
2019-01-16T03:42:58.201Z,4.40
2019-01-16T03:45:28.498Z,4.40
2019-01-16T03:47:58.706Z,4.40
2019-01-16T03:50:31.608Z,4.30
2019-01-16T03:53:17.462Z,4.30
2019-01-16T03:55:47.651Z,4.30
2019-01-16T03:58:20.574Z,4.30
2019-01-16T04:00:53.642Z,4.30
2019-01-16T04:03:23.845Z,4.30
2019-01-16T04:06:09.839Z,4.30
2019-01-16T04:08:40.109Z,4.30
2019-01-16T04:11:19.129Z,4.30
2019-01-16T04:14:01.094Z,4.30
2019-01-16T04:16:46.179Z,4.30
2019-01-16T04:19:21.554Z,4.30
2019-01-16T04:21:56.691Z,4.30
2019-01-16T04:24:38.404Z,4.30
2019-01-16T04:27:24.381Z,4.30
2019-01-16T04:30:00.382Z,4.30
2019-01-16T04:32:33.057Z,4.20
2019-01-16T04:35:18.305Z,4.20
2019-01-16T04:37:51.034Z,4.20
2019-01-16T04:40:33.039Z,4.20
2019-01-16T04:43:12.145Z,4.20
2019-01-16T04:45:58.254Z,4.20
2019-01-16T04:48:28.431Z,4.20
2019-01-16T04:51:07.453Z,4.20
2019-01-16T04:53:49.400Z,4.20
2019-01-16T04:56:28.273Z,4.10
2019-01-16T04:59:15.981Z,4.10
2019-01-16T05:02:02.169Z,4.10
2019-01-16T05:04:41.514Z,4.10
2019-01-16T05:07:17.769Z,4.20
2019-01-16T05:10:03.858Z,4.20
2019-01-16T05:12:34.067Z,4.20
2019-01-16T05:15:09.990Z,4.20
2019-01-16T05:17:51.706Z,4.20
2019-01-16T05:20:33.458Z,4.10
2019-01-16T05:23:03.674Z,4.10
2019-01-16T05:25:36.563Z,4.10
2019-01-16T05:28:22.788Z,4.10
2019-01-16T05:30:55.726Z,4.10
2019-01-16T05:33:28.792Z,4.20
2019-01-16T05:36:04.511Z,4.20
2019-01-16T05:38:52.473Z,4.10
2019-01-16T05:41:25.097Z,4.10
2019-01-16T05:44:12.217Z,4.10
2019-01-16T05:46:51.542Z,4.10
2019-01-16T05:49:30.953Z,4.20
2019-01-16T05:52:01.157Z,4.20
2019-01-16T05:54:39.861Z,4.20
2019-01-16T05:57:10.001Z,4.10
2019-01-16T05:59:40.193Z,4.10
2019-01-16T06:02:26.393Z,4.10
2019-01-16T06:04:56.577Z,4.10
2019-01-16T06:07:42.750Z,4.10
2019-01-16T06:10:17.445Z,4.00
2019-01-16T06:12:53.718Z,4.00
2019-01-16T06:15:39.941Z,4.10
2019-01-16T06:18:26.288Z,4.10
2019-01-16T06:21:08.454Z,4.00
2019-01-16T06:23:53.237Z,4.10
2019-01-16T06:26:29.138Z,4.10
2019-01-16T06:29:02.091Z,4.10
2019-01-16T06:31:41.309Z,4.00
2019-01-16T06:34:11.515Z,4.10
2019-01-16T06:36:59.733Z,4.10
2019-01-16T06:39:41.895Z,4.10
2019-01-16T06:42:27.226Z,4.10
2019-01-16T06:45:09.182Z,4.10
2019-01-16T06:47:39.462Z,4.00
2019-01-16T06:50:27.060Z,4.00
2019-01-16T06:53:00.063Z,4.00
2019-01-16T06:55:39.039Z,4.00
2019-01-16T06:58:11.986Z,4.00
2019-01-16T07:00:54.007Z,3.90
2019-01-16T07:03:30.192Z,3.90
2019-01-16T07:06:18.250Z,3.90
2019-01-16T07:09:04.586Z,3.90
2019-01-16T07:11:46.534Z,3.90
2019-01-16T07:14:16.757Z,3.90
2019-01-16T07:16:46.874Z,3.90
2019-01-16T07:22:30.891Z,3.90
2019-01-16T07:25:01.133Z,3.90
2019-01-16T07:27:31.335Z,3.90
2019-01-16T07:30:04.237Z,3.90
2019-01-16T07:32:43.175Z,3.90
2019-01-16T07:35:13.414Z,3.90
2019-01-16T07:37:55.438Z,3.90
2019-01-16T07:40:43.562Z,4.00
2019-01-16T07:43:22.598Z,4.00
2019-01-16T07:46:08.820Z,3.90
2019-01-16T07:48:48.175Z,3.90
2019-01-16T07:51:30.098Z,4.00
2019-01-16T07:54:16.266Z,3.90
2019-01-16T07:56:46.494Z,3.90
2019-01-16T07:59:21.793Z,4.00
2019-01-16T08:01:54.441Z,4.00
2019-01-16T08:04:33.346Z,4.00
2019-01-16T08:07:19.504Z,4.10
2019-01-16T08:10:07.726Z,4.10
2019-01-16T08:12:40.694Z,4.10
2019-01-16T08:15:12.362Z,4.10
2019-01-16T08:17:57.106Z,4.00
2019-01-16T08:20:33.041Z,4.00
2019-01-16T08:23:03.254Z,4.10
2019-01-16T08:25:36.013Z,4.10
2019-01-16T08:28:09.038Z,4.10
2019-01-16T08:30:39.430Z,4.10
2019-01-16T08:33:24.672Z,4.10
2019-01-16T08:36:00.525Z,4.20
2019-01-16T08:38:48.579Z,4.10
2019-01-16T08:41:18.793Z,4.10
2019-01-16T08:43:51.833Z,4.10
2019-01-16T08:46:21.977Z,4.10
2019-01-16T08:49:07.941Z,4.10
2019-01-16T08:51:41.233Z,4.20
2019-01-16T08:54:11.493Z,4.20
2019-01-16T08:56:44.423Z,4.30
2019-01-16T08:59:32.530Z,4.20
2019-01-16T09:02:19.045Z,4.20
2019-01-16T09:05:06.769Z,4.30
2019-01-16T09:07:45.551Z,4.30
2019-01-16T09:10:33.638Z,4.30
2019-01-16T09:13:03.859Z,4.20
2019-01-16T09:15:49.904Z,4.30
2019-01-16T09:18:20.105Z,4.30
2019-01-16T09:20:58.977Z,4.40
2019-01-16T09:23:29.211Z,4.40
2019-01-16T09:26:16.863Z,4.30
2019-01-16T09:28:47.095Z,4.30
2019-01-16T09:31:17.374Z,4.30
2019-01-16T09:33:47.685Z,4.40
2019-01-16T09:36:17.877Z,4.40
2019-01-16T09:38:50.744Z,4.50
2019-01-16T09:41:20.923Z,4.50
2019-01-16T09:43:54.019Z,4.60
2019-01-16T09:46:26.862Z,4.70
2019-01-16T09:48:57.057Z,4.70
2019-01-16T09:51:29.587Z,4.60
2019-01-16T09:54:08.464Z,4.70
2019-01-16T09:56:41.099Z,4.70
2019-01-16T09:59:27.511Z,4.80
2019-01-16T10:02:00.376Z,4.90
2019-01-16T10:04:33.285Z,5.00
2019-01-16T10:07:06.202Z,5.00
2019-01-16T10:09:36.488Z,5.10
2019-01-16T10:12:09.797Z,5.00
2019-01-16T10:14:48.809Z,5.10
2019-01-16T10:17:24.888Z,5.10
2019-01-16T10:19:55.177Z,5.10
2019-01-16T10:22:34.157Z,5.20
2019-01-16T10:25:19.474Z,5.20
2019-01-16T10:27:55.399Z,5.60
2019-01-16T10:30:43.598Z,6.00
2019-01-16T10:33:19.260Z,6.00
2019-01-16T10:35:55.279Z,5.90
2019-01-16T10:38:31.629Z,6.30
2019-01-16T10:41:17.961Z,6.50
2019-01-16T10:43:57.333Z,6.50
2019-01-16T10:46:30.246Z,6.70
2019-01-16T10:49:00.541Z,7.50
2019-01-16T10:51:30.666Z,7.80
2019-01-16T10:54:19.170Z,8.30
2019-01-16T10:56:51.912Z,8.60
2019-01-16T10:59:24.962Z,8.50
2019-01-16T11:01:55.214Z,8.20
2019-01-16T11:04:41.414Z,8.10
2019-01-16T11:07:27.695Z,8.20
2019-01-16T11:10:06.699Z,7.60
2019-01-16T11:12:39.798Z,8.00
2019-01-16T11:15:10.441Z,7.90
2019-01-16T11:17:46.462Z,7.50
2019-01-16T11:20:16.579Z,7.70
2019-01-16T11:23:04.823Z,7.80
2019-01-16T11:25:46.511Z,7.90
2019-01-16T11:28:31.594Z,8.30
2019-01-16T11:31:04.873Z,7.50
2019-01-16T11:33:52.496Z,7.20
2019-01-16T11:36:38.579Z,7.40
2019-01-16T11:39:13.129Z,7.90
2019-01-16T11:41:51.733Z,8.00
2019-01-16T11:44:21.918Z,8.00
2019-01-16T11:46:52.206Z,7.90
2019-01-16T11:49:28.225Z,7.50
2019-01-16T11:51:58.494Z,7.70
2019-01-16T11:54:37.431Z,7.80
2019-01-16T11:57:10.738Z,7.60
2019-01-16T11:59:42.653Z,7.70
2019-01-16T12:02:29.000Z,7.80
2019-01-16T12:04:59.200Z,7.50
2019-01-16T12:07:32.580Z,7.20
2019-01-16T12:10:05.265Z,7.30
2019-01-16T12:12:35.406Z,7.60
2019-01-16T12:15:19.422Z,7.90
2019-01-16T12:18:01.264Z,7.60
2019-01-16T12:20:40.227Z,7.80
2019-01-16T12:23:16.218Z,8.00
2019-01-16T12:25:52.261Z,7.80
2019-01-16T12:28:28.493Z,7.50
2019-01-16T12:31:07.338Z,7.30
2019-01-16T12:33:46.333Z,7.30
2019-01-16T12:36:25.546Z,7.20
2019-01-16T12:39:10.808Z,7.30
2019-01-16T12:41:59.795Z,7.50
2019-01-16T12:44:31.197Z,7.60
2019-01-16T12:47:01.401Z,8.20
2019-01-16T12:49:37.229Z,8.40
2019-01-16T12:52:22.594Z,8.60
2019-01-16T12:54:52.783Z,8.80
2019-01-16T12:57:25.519Z,8.90
2019-01-16T13:00:13.689Z,8.60
2019-01-16T13:02:46.539Z,8.10
2019-01-16T13:05:34.486Z,8.50
2019-01-16T13:08:07.422Z,8.30
2019-01-16T13:10:43.341Z,8.50
2019-01-16T13:13:25.280Z,8.10
2019-01-16T13:16:04.408Z,7.70
2019-01-16T13:18:50.511Z,7.80
2019-01-16T13:21:20.701Z,7.80
2019-01-16T13:23:53.812Z,8.00
2019-01-16T13:26:27.042Z,8.30
2019-01-16T13:28:59.709Z,8.40
2019-01-16T13:31:38.794Z,8.80
2019-01-16T13:34:11.726Z,8.80
2019-01-16T13:36:44.525Z,9.00
2019-01-16T13:39:29.545Z,8.90
2019-01-16T13:42:14.542Z,8.50
2019-01-16T13:44:53.249Z,8.80
2019-01-16T13:47:35.423Z,8.80
2019-01-16T13:50:23.216Z,8.30
2019-01-16T13:53:09.448Z,8.20
2019-01-16T13:55:42.615Z,7.90
2019-01-16T13:58:24.594Z,8.00
2019-01-16T14:00:57.292Z,8.20
2019-01-16T14:03:33.195Z,8.20
2019-01-16T14:06:03.386Z,8.10
2019-01-16T14:08:49.847Z,7.90
2019-01-16T14:11:36.339Z,8.00
2019-01-16T14:14:22.728Z,7.70
2019-01-16T14:16:55.721Z,7.80
2019-01-16T14:19:25.930Z,7.60
2019-01-16T14:22:12.348Z,7.60
2019-01-16T14:24:42.622Z,7.40
2019-01-16T14:27:15.735Z,7.30
2019-01-16T14:29:54.720Z,7.20
2019-01-16T14:32:41.102Z,7.20
2019-01-16T14:35:14.426Z,7.20
2019-01-16T14:37:56.669Z,7.00
2019-01-16T14:40:27.025Z,6.80
2019-01-16T14:42:57.142Z,6.80
2019-01-16T14:45:36.306Z,6.90
2019-01-16T14:48:24.879Z,6.80
2019-01-16T14:50:57.651Z,6.60
2019-01-16T14:53:33.829Z,6.50
2019-01-16T14:56:13.025Z,6.50
2019-01-16T14:58:52.285Z,6.40
2019-01-16T15:01:22.490Z,6.30
2019-01-16T15:04:08.578Z,6.30
2019-01-16T15:06:41.810Z,6.20
2019-01-16T15:09:13.266Z,6.20
2019-01-16T15:11:46.546Z,6.10
2019-01-16T15:14:32.809Z,5.90
2019-01-16T15:17:05.778Z,5.80
2019-01-16T15:19:53.930Z,5.80
2019-01-16T15:22:35.737Z,5.70
2019-01-16T15:25:07.619Z,5.70
2019-01-16T15:27:56.642Z,5.60
2019-01-16T15:30:26.949Z,5.50
2019-01-16T15:32:57.217Z,5.40
2019-01-16T15:35:27.438Z,5.40
2019-01-16T15:38:03.397Z,5.30
2019-01-16T15:40:42.622Z,5.20
2019-01-16T15:43:24.726Z,5.20
2019-01-16T15:46:06.611Z,5.10
2019-01-16T15:48:36.814Z,5.10
2019-01-16T15:51:21.772Z,5.00
2019-01-16T15:53:51.949Z,5.00
2019-01-16T15:56:39.833Z,4.80
2019-01-16T15:59:10.209Z,4.80
2019-01-16T16:01:43.255Z,4.70
2019-01-16T16:04:19.197Z,4.70
2019-01-16T16:06:52.102Z,4.70
2019-01-16T16:09:22.295Z,4.60
2019-01-16T16:11:55.202Z,4.60
2019-01-16T16:14:25.469Z,4.60
2019-01-16T16:17:10.697Z,4.50
2019-01-16T16:19:55.966Z,4.40
2019-01-16T16:22:35.190Z,4.40
2019-01-16T16:25:06.056Z,4.30
2019-01-16T16:27:45.173Z,4.30
2019-01-16T16:30:33.614Z,4.20
2019-01-16T16:33:03.805Z,4.20
2019-01-16T16:35:42.799Z,4.10
2019-01-16T16:38:18.982Z,4.00
2019-01-16T16:41:04.375Z,4.00
2019-01-16T16:43:52.487Z,3.90
2019-01-16T16:46:40.798Z,3.90
2019-01-16T16:49:19.946Z,4.00
2019-01-16T16:51:52.919Z,4.00
2019-01-16T16:54:31.949Z,3.90
2019-01-16T16:57:17.154Z,3.90
2019-01-16T16:59:47.338Z,3.90
2019-01-16T17:02:26.213Z,3.90
2019-01-16T17:05:02.258Z,3.80
2019-01-16T17:07:35.164Z,3.80
2019-01-16T17:10:09.813Z,3.70
2019-01-16T17:12:52.174Z,3.70
2019-01-16T17:15:38.097Z,3.70
2019-01-16T17:18:14.186Z,3.70
2019-01-16T17:20:59.546Z,3.70
2019-01-16T17:23:32.825Z,3.70
2019-01-16T17:26:07.426Z,3.60
2019-01-16T17:28:52.306Z,3.60
2019-01-16T17:31:28.361Z,3.60
2019-01-16T17:33:58.570Z,3.50
2019-01-16T17:36:46.466Z,3.50
2019-01-16T17:39:32.557Z,3.50
2019-01-16T17:42:05.422Z,3.50
2019-01-16T17:44:51.946Z,3.50
2019-01-16T17:47:22.263Z,3.50
2019-01-16T17:49:58.204Z,3.50
2019-01-16T17:52:28.518Z,3.60
2019-01-16T17:54:58.778Z,3.60
2019-01-16T17:57:29.155Z,3.70
2019-01-16T18:00:05.192Z,3.70
2019-01-16T18:02:37.926Z,3.80
2019-01-16T18:05:08.634Z,3.80
2019-01-16T18:07:55.171Z,3.80
2019-01-16T18:10:28.170Z,3.70
2019-01-16T18:13:01.023Z,3.70
2019-01-16T18:15:49.000Z,3.60
2019-01-16T18:18:28.066Z,3.60
2019-01-16T18:21:13.020Z,3.70
2019-01-16T18:23:43.197Z,3.90
2019-01-16T18:26:19.424Z,3.90
2019-01-16T18:28:49.707Z,4.00
2019-01-16T18:31:26.068Z,4.00
2019-01-16T18:33:58.711Z,4.10
2019-01-16T18:36:43.750Z,4.10
2019-01-16T18:39:13.929Z,4.20
2019-01-16T18:42:00.167Z,4.30
2019-01-16T18:44:40.070Z,4.30
2019-01-16T18:47:10.345Z,4.40
2019-01-16T18:49:57.705Z,4.40
2019-01-16T18:52:43.831Z,4.40
2019-01-16T18:55:29.813Z,4.40
2019-01-16T18:58:14.813Z,4.40
2019-01-16T19:00:47.755Z,4.30
2019-01-16T19:03:33.346Z,4.40
2019-01-16T19:06:19.557Z,4.30
2019-01-16T19:09:05.949Z,4.30
2019-01-16T19:11:38.856Z,4.30
2019-01-16T19:14:14.532Z,4.30
2019-01-16T19:16:56.238Z,4.30
2019-01-16T19:19:32.474Z,4.30
2019-01-16T19:22:02.734Z,4.30
2019-01-16T19:24:35.514Z,4.40
2019-01-16T19:27:23.993Z,4.30
2019-01-16T19:29:54.856Z,4.40
2019-01-16T19:32:38.771Z,4.30
2019-01-16T19:35:10.937Z,4.30
2019-01-16T19:37:41.305Z,4.40
2019-01-16T19:40:22.193Z,4.40
2019-01-16T19:42:58.568Z,4.40
2019-01-16T19:45:34.934Z,4.50
2019-01-16T19:48:05.139Z,4.50
2019-01-16T19:50:35.385Z,4.50
2019-01-16T19:53:08.707Z,4.50
2019-01-16T19:55:39.070Z,4.50
2019-01-16T19:58:21.203Z,4.50
2019-01-16T20:00:54.407Z,4.40
2019-01-16T20:03:27.512Z,4.50
2019-01-16T20:06:00.496Z,4.40
2019-01-16T20:08:46.852Z,4.50
2019-01-16T20:11:32.042Z,4.50
2019-01-16T20:14:11.530Z,4.60
2019-01-16T20:16:41.782Z,4.60
2019-01-16T20:19:28.087Z,4.60
2019-01-16T20:22:14.582Z,4.60
2019-01-16T20:24:44.865Z,4.60
2019-01-16T20:27:30.173Z,4.70
2019-01-16T20:30:06.232Z,4.60
2019-01-16T20:32:51.632Z,4.60
2019-01-16T20:35:33.833Z,4.60
2019-01-16T20:38:16.134Z,4.60
2019-01-16T20:40:46.350Z,4.60
2019-01-16T20:43:20.722Z,4.70
2019-01-16T20:45:57.298Z,4.70
2019-01-16T20:48:36.614Z,4.80
2019-01-16T20:51:09.690Z,4.80
2019-01-16T20:53:45.758Z,4.90
2019-01-16T20:56:18.989Z,4.90
2019-01-16T20:58:49.201Z,4.90
2019-01-16T21:01:22.314Z,5.00
2019-01-16T21:04:08.532Z,5.00
2019-01-16T21:06:50.769Z,5.00
2019-01-16T21:09:21.066Z,5.00
2019-01-16T21:12:07.566Z,5.10
2019-01-16T21:14:37.928Z,5.10
2019-01-16T21:17:13.900Z,5.20
2019-01-16T21:19:54.375Z,5.20
2019-01-16T21:22:42.436Z,5.20
2019-01-16T21:25:21.758Z,5.10
2019-01-16T21:27:51.959Z,5.10
2019-01-16T21:30:38.264Z,5.10
2019-01-16T21:33:14.129Z,5.00
2019-01-16T21:36:00.212Z,5.00
2019-01-16T21:38:30.450Z,5.00
2019-01-16T21:41:12.604Z,5.00
2019-01-16T21:43:48.414Z,5.00
2019-01-16T21:46:18.701Z,5.00
2019-01-16T21:48:54.301Z,4.90
2019-01-16T21:51:40.442Z,4.90
2019-01-16T21:54:13.581Z,4.90
2019-01-16T21:56:55.765Z,4.90
2019-01-16T21:59:37.650Z,4.90
2019-01-16T22:02:13.319Z,4.90
2019-01-16T22:04:43.571Z,4.90
2019-01-16T22:07:13.917Z,4.90
2019-01-16T22:09:46.814Z,4.90
2019-01-16T22:12:32.731Z,4.90
2019-01-16T22:15:05.966Z,4.90
2019-01-16T22:17:48.082Z,4.90
2019-01-16T22:20:18.278Z,5.00
2019-01-16T22:23:04.901Z,5.00
2019-01-16T22:25:35.082Z,5.00
2019-01-16T22:28:08.061Z,4.90
2019-01-16T22:30:41.358Z,4.90
2019-01-16T22:33:20.394Z,5.00
2019-01-16T22:36:08.478Z,4.90
2019-01-16T22:38:51.158Z,4.90
2019-01-16T22:41:21.364Z,4.90
2019-01-16T22:43:54.269Z,4.90
2019-01-16T22:46:30.708Z,4.90
2019-01-16T22:49:01.156Z,4.90
2019-01-16T22:51:32.972Z,4.80
2019-01-16T22:54:19.281Z,4.90
2019-01-16T22:56:52.227Z,4.80
2019-01-16T22:59:25.294Z,4.80
2019-01-16T23:01:58.678Z,4.90
2019-01-16T23:04:45.149Z,4.90
2019-01-16T23:07:18.654Z,4.90
2019-01-16T23:09:54.749Z,4.90
2019-01-16T23:12:25.127Z,4.90
2019-01-16T23:14:55.468Z,4.90
2019-01-16T23:17:40.926Z,4.90
2019-01-16T23:20:20.332Z,4.90
2019-01-16T23:22:53.692Z,4.90
2019-01-16T23:25:26.649Z,5.00
2019-01-16T23:28:05.514Z,5.00
2019-01-16T23:30:35.880Z,5.00
2019-01-16T23:33:24.458Z,5.00
2019-01-16T23:36:00.965Z,5.00
2019-01-16T23:38:47.206Z,5.00
2019-01-16T23:41:31.767Z,5.00
2019-01-16T23:44:10.772Z,5.00
2019-01-16T23:46:51.616Z,4.90
2019-01-16T23:49:31.168Z,4.90
2019-01-16T23:52:13.307Z,4.90
2019-01-16T23:54:46.508Z,4.90
2019-01-16T23:57:16.866Z,5.00
